sensor_id;sensor_type;location;lat;lon;timestamp;P1;durP1;ratioP1;P2;durP2;ratioP2
40707;SDS011;26392;42.696;23.350;2022-09-21T00:01:12;7.03;;;4.50;;
40707;SDS011;26392;42.696;23.350;2022-09-21T00:03:54;6.43;;;3.67;;
40707;SDS011;26392;42.696;23.350;2022-09-21T00:06:23;7.38;;;3.95;;
40707;SDS011;26392;42.696;23.350;2022-09-21T00:08:50;8.18;;;3.92;;
40707;SDS011;26392;42.696;23.350;2022-09-21T00:11:17;6.70;;;3.50;;
40707;SDS011;26392;42.696;23.350;2022-09-21T00:13:44;7.40;;;3.58;;
40707;SDS011;26392;42.696;23.350;2022-09-21T00:16:11;5.13;;;3.42;;
40707;SDS011;26392;42.696;23.350;2022-09-21T00:18:37;6.10;;;3.63;;
40707;SDS011;26392;42.696;23.350;2022-09-21T00:21:10;7.97;;;3.28;;
40707;SDS011;26392;42.696;23.350;2022-09-21T00:23:38;5.43;;;3.78;;
40707;SDS011;26392;42.696;23.350;2022-09-21T00:26:07;6.32;;;3.47;;
40707;SDS011;26392;42.696;23.350;2022-09-21T00:28:34;6.93;;;3.90;;
40707;SDS011;26392;42.696;23.350;2022-09-21T00:31:00;6.00;;;3.83;;
40707;SDS011;26392;42.696;23.350;2022-09-21T00:33:30;9.90;;;4.30;;
40707;SDS011;26392;42.696;23.350;2022-09-21T00:36:00;5.80;;;3.65;;
40707;SDS011;26392;42.696;23.350;2022-09-21T00:38:27;8.88;;;4.78;;
40707;SDS011;26392;42.696;23.350;2022-09-21T00:40:52;7.45;;;4.13;;
40707;SDS011;26392;42.696;23.350;2022-09-21T00:43:18;7.13;;;4.03;;
40707;SDS011;26392;42.696;23.350;2022-09-21T00:45:43;11.32;;;4.20;;
40707;SDS011;26392;42.696;23.350;2022-09-21T00:48:12;4.57;;;3.50;;
40707;SDS011;26392;42.696;23.350;2022-09-21T00:50:41;6.78;;;3.90;;
40707;SDS011;26392;42.696;23.350;2022-09-21T00:53:12;6.70;;;3.80;;
40707;SDS011;26392;42.696;23.350;2022-09-21T00:55:40;5.85;;;3.72;;
40707;SDS011;26392;42.696;23.350;2022-09-21T00:58:10;11.27;;;3.95;;
40707;SDS011;26392;42.696;23.350;2022-09-21T01:00:40;5.88;;;3.72;;
40707;SDS011;26392;42.696;23.350;2022-09-21T01:03:06;5.07;;;3.85;;
40707;SDS011;26392;42.696;23.350;2022-09-21T01:05:33;5.25;;;3.42;;
40707;SDS011;26392;42.696;23.350;2022-09-21T01:07:59;7.50;;;4.18;;
40707;SDS011;26392;42.696;23.350;2022-09-21T01:10:28;10.02;;;4.50;;
40707;SDS011;26392;42.696;23.350;2022-09-21T01:13:17;6.32;;;3.83;;
40707;SDS011;26392;42.696;23.350;2022-09-21T01:26:45;7.82;;;5.30;;
40707;SDS011;26392;42.696;23.350;2022-09-21T01:32:24;13.45;;;8.05;;
40707;SDS011;26392;42.696;23.350;2022-09-21T01:35:13;11.70;;;7.82;;
40707;SDS011;26392;42.696;23.350;2022-09-21T01:37:46;11.85;;;6.63;;
40707;SDS011;26392;42.696;23.350;2022-09-21T01:40:20;12.15;;;7.30;;
40707;SDS011;26392;42.696;23.350;2022-09-21T01:42:50;10.93;;;6.43;;
40707;SDS011;26392;42.696;23.350;2022-09-21T01:45:20;11.48;;;6.72;;
40707;SDS011;26392;42.696;23.350;2022-09-21T01:47:50;11.20;;;6.65;;
40707;SDS011;26392;42.696;23.350;2022-09-21T01:50:18;12.90;;;6.90;;
40707;SDS011;26392;42.696;23.350;2022-09-21T01:52:52;11.00;;;6.38;;
40707;SDS011;26392;42.696;23.350;2022-09-21T01:55:25;8.48;;;4.72;;
40707;SDS011;26392;42.696;23.350;2022-09-21T02:00:20;7.85;;;4.47;;
40707;SDS011;26392;42.696;23.350;2022-09-21T02:05:33;9.05;;;5.57;;
40707;SDS011;26392;42.696;23.350;2022-09-21T02:08:00;9.57;;;5.55;;
40707;SDS011;26392;42.696;23.350;2022-09-21T02:10:34;9.77;;;4.30;;
40707;SDS011;26392;42.696;23.350;2022-09-21T02:13:04;9.20;;;4.68;;
40707;SDS011;26392;42.696;23.350;2022-09-21T02:15:38;8.20;;;4.10;;
40707;SDS011;26392;42.696;23.350;2022-09-21T02:18:40;7.93;;;4.43;;
40707;SDS011;26392;42.696;23.350;2022-09-21T02:21:00;6.72;;;4.22;;
40707;SDS011;26392;42.696;23.350;2022-09-21T02:23:36;7.95;;;4.75;;
40707;SDS011;26392;42.696;23.350;2022-09-21T02:26:11;8.10;;;4.75;;
40707;SDS011;26392;42.696;23.350;2022-09-21T02:28:45;7.25;;;4.28;;
40707;SDS011;26392;42.696;23.350;2022-09-21T02:33:55;5.43;;;3.95;;
40707;SDS011;26392;42.696;23.350;2022-09-21T02:36:37;10.73;;;3.80;;
40707;SDS011;26392;42.696;23.350;2022-09-21T02:39:11;7.82;;;3.95;;
40707;SDS011;26392;42.696;23.350;2022-09-21T02:47:16;5.43;;;2.88;;
40707;SDS011;26392;42.696;23.350;2022-09-21T02:49:48;4.45;;;3.47;;
40707;SDS011;26392;42.696;23.350;2022-09-21T02:52:17;4.57;;;2.97;;
40707;SDS011;26392;42.696;23.350;2022-09-21T02:54:45;4.70;;;3.20;;
40707;SDS011;26392;42.696;23.350;2022-09-21T02:57:15;4.13;;;2.75;;
40707;SDS011;26392;42.696;23.350;2022-09-21T02:59:42;4.35;;;3.67;;
40707;SDS011;26392;42.696;23.350;2022-09-21T03:02:08;8.07;;;3.58;;
40707;SDS011;26392;42.696;23.350;2022-09-21T03:04:36;5.25;;;3.13;;
40707;SDS011;26392;42.696;23.350;2022-09-21T03:07:05;6.38;;;3.53;;
40707;SDS011;26392;42.696;23.350;2022-09-21T03:09:31;7.53;;;3.15;;
40707;SDS011;26392;42.696;23.350;2022-09-21T03:11:56;5.30;;;3.40;;
40707;SDS011;26392;42.696;23.350;2022-09-21T03:14:22;6.03;;;3.72;;
40707;SDS011;26392;42.696;23.350;2022-09-21T03:16:47;9.50;;;3.53;;
40707;SDS011;26392;42.696;23.350;2022-09-21T03:19:13;6.90;;;3.35;;
40707;SDS011;26392;42.696;23.350;2022-09-21T03:21:39;5.93;;;3.60;;
40707;SDS011;26392;42.696;23.350;2022-09-21T03:24:05;5.88;;;3.53;;
40707;SDS011;26392;42.696;23.350;2022-09-21T03:26:31;6.05;;;3.00;;
40707;SDS011;26392;42.696;23.350;2022-09-21T03:28:57;10.48;;;3.65;;
40707;SDS011;26392;42.696;23.350;2022-09-21T03:31:22;5.70;;;3.65;;
40707;SDS011;26392;42.696;23.350;2022-09-21T03:33:48;5.07;;;3.38;;
40707;SDS011;26392;42.696;23.350;2022-09-21T03:36:13;6.28;;;3.67;;
40707;SDS011;26392;42.696;23.350;2022-09-21T03:38:39;5.22;;;3.50;;
40707;SDS011;26392;42.696;23.350;2022-09-21T03:41:04;5.03;;;3.70;;
40707;SDS011;26392;42.696;23.350;2022-09-21T03:43:30;4.82;;;3.60;;
40707;SDS011;26392;42.696;23.350;2022-09-21T03:45:56;7.28;;;3.70;;
40707;SDS011;26392;42.696;23.350;2022-09-21T03:48:22;7.40;;;3.70;;
40707;SDS011;26392;42.696;23.350;2022-09-21T03:50:47;6.60;;;4.20;;
40707;SDS011;26392;42.696;23.350;2022-09-21T03:53:12;6.40;;;4.18;;
40707;SDS011;26392;42.696;23.350;2022-09-21T03:55:38;8.65;;;3.40;;
40707;SDS011;26392;42.696;23.350;2022-09-21T03:58:04;6.18;;;4.00;;
40707;SDS011;26392;42.696;23.350;2022-09-21T04:00:30;6.40;;;3.95;;
40707;SDS011;26392;42.696;23.350;2022-09-21T04:02:57;5.18;;;3.88;;
40707;SDS011;26392;42.696;23.350;2022-09-21T04:05:22;6.35;;;4.30;;
40707;SDS011;26392;42.696;23.350;2022-09-21T04:07:48;5.50;;;3.88;;
40707;SDS011;26392;42.696;23.350;2022-09-21T04:10:15;9.43;;;4.80;;
40707;SDS011;26392;42.696;23.350;2022-09-21T04:12:43;6.32;;;4.32;;
40707;SDS011;26392;42.696;23.350;2022-09-21T04:15:14;8.43;;;4.32;;
40707;SDS011;26392;42.696;23.350;2022-09-21T04:17:43;11.15;;;4.55;;
40707;SDS011;26392;42.696;23.350;2022-09-21T04:20:09;8.70;;;5.10;;
40707;SDS011;26392;42.696;23.350;2022-09-21T04:22:35;8.98;;;5.07;;
40707;SDS011;26392;42.696;23.350;2022-09-21T04:25:01;8.57;;;5.72;;
40707;SDS011;26392;42.696;23.350;2022-09-21T04:27:28;8.77;;;4.32;;
40707;SDS011;26392;42.696;23.350;2022-09-21T04:29:54;12.43;;;5.05;;
40707;SDS011;26392;42.696;23.350;2022-09-21T04:32:19;9.00;;;5.25;;
40707;SDS011;26392;42.696;23.350;2022-09-21T04:34:45;11.00;;;6.15;;
40707;SDS011;26392;42.696;23.350;2022-09-21T04:37:11;12.60;;;6.07;;
40707;SDS011;26392;42.696;23.350;2022-09-21T04:39:36;12.15;;;6.45;;
40707;SDS011;26392;42.696;23.350;2022-09-21T04:42:02;10.30;;;7.10;;
40707;SDS011;26392;42.696;23.350;2022-09-21T04:44:28;13.45;;;6.65;;
40707;SDS011;26392;42.696;23.350;2022-09-21T04:46:54;7.68;;;5.05;;
40707;SDS011;26392;42.696;23.350;2022-09-21T04:49:21;11.27;;;5.07;;
40707;SDS011;26392;42.696;23.350;2022-09-21T04:51:46;9.52;;;5.63;;
40707;SDS011;26392;42.696;23.350;2022-09-21T04:54:12;10.93;;;6.30;;
40707;SDS011;26392;42.696;23.350;2022-09-21T04:56:37;10.00;;;5.82;;
40707;SDS011;26392;42.696;23.350;2022-09-21T04:59:03;8.95;;;5.90;;
40707;SDS011;26392;42.696;23.350;2022-09-21T05:01:29;10.60;;;5.85;;
40707;SDS011;26392;42.696;23.350;2022-09-21T05:03:54;12.05;;;6.30;;
40707;SDS011;26392;42.696;23.350;2022-09-21T05:06:25;10.13;;;5.55;;
40707;SDS011;26392;42.696;23.350;2022-09-21T05:08:51;11.43;;;5.97;;
40707;SDS011;26392;42.696;23.350;2022-09-21T05:11:35;10.20;;;5.80;;
40707;SDS011;26392;42.696;23.350;2022-09-21T05:14:01;15.13;;;6.43;;
40707;SDS011;26392;42.696;23.350;2022-09-21T05:16:26;14.13;;;7.03;;
40707;SDS011;26392;42.696;23.350;2022-09-21T05:18:52;18.05;;;6.25;;
40707;SDS011;26392;42.696;23.350;2022-09-21T05:21:19;14.52;;;6.70;;
40707;SDS011;26392;42.696;23.350;2022-09-21T05:23:45;11.40;;;5.47;;
40707;SDS011;26392;42.696;23.350;2022-09-21T05:26:11;15.38;;;6.20;;
40707;SDS011;26392;42.696;23.350;2022-09-21T05:28:36;11.80;;;5.60;;
40707;SDS011;26392;42.696;23.350;2022-09-21T05:39:30;12.55;;;6.18;;
40707;SDS011;26392;42.696;23.350;2022-09-21T05:41:56;27.13;;;6.28;;
40707;SDS011;26392;42.696;23.350;2022-09-21T05:44:21;15.25;;;6.72;;
40707;SDS011;26392;42.696;23.350;2022-09-21T05:49:51;9.48;;;6.05;;
40707;SDS011;26392;42.696;23.350;2022-09-21T05:52:30;11.63;;;5.38;;
40707;SDS011;26392;42.696;23.350;2022-09-21T05:55:22;11.60;;;5.28;;
40707;SDS011;26392;42.696;23.350;2022-09-21T05:58:12;9.88;;;5.90;;
40707;SDS011;26392;42.696;23.350;2022-09-21T06:03:45;10.60;;;5.37;;
40707;SDS011;26392;42.696;23.350;2022-09-21T06:06:13;10.70;;;4.85;;
40707;SDS011;26392;42.696;23.350;2022-09-21T06:08:40;15.35;;;5.35;;
40707;SDS011;26392;42.696;23.350;2022-09-21T06:11:05;12.18;;;5.10;;
40707;SDS011;26392;42.696;23.350;2022-09-21T06:13:30;6.13;;;3.67;;
40707;SDS011;26392;42.696;23.350;2022-09-21T06:15:56;8.02;;;4.03;;
40707;SDS011;26392;42.696;23.350;2022-09-21T06:18:22;10.30;;;4.88;;
40707;SDS011;26392;42.696;23.350;2022-09-21T06:20:48;9.38;;;4.93;;
40707;SDS011;26392;42.696;23.350;2022-09-21T06:23:13;8.68;;;4.10;;
40707;SDS011;26392;42.696;23.350;2022-09-21T06:25:39;10.10;;;4.97;;
40707;SDS011;26392;42.696;23.350;2022-09-21T06:28:05;9.07;;;4.72;;
40707;SDS011;26392;42.696;23.350;2022-09-21T06:30:36;14.18;;;4.88;;
40707;SDS011;26392;42.696;23.350;2022-09-21T06:33:03;15.70;;;4.53;;
40707;SDS011;26392;42.696;23.350;2022-09-21T06:35:30;7.80;;;4.25;;
40707;SDS011;26392;42.696;23.350;2022-09-21T06:37:57;12.02;;;4.18;;
40707;SDS011;26392;42.696;23.350;2022-09-21T06:40:26;10.50;;;3.97;;
40707;SDS011;26392;42.696;23.350;2022-09-21T06:42:56;11.07;;;4.38;;
40707;SDS011;26392;42.696;23.350;2022-09-21T06:45:22;5.35;;;3.80;;
40707;SDS011;26392;42.696;23.350;2022-09-21T06:47:48;6.88;;;3.72;;
40707;SDS011;26392;42.696;23.350;2022-09-21T06:50:14;15.25;;;4.20;;
40707;SDS011;26392;42.696;23.350;2022-09-21T06:52:39;9.07;;;4.05;;
40707;SDS011;26392;42.696;23.350;2022-09-21T06:55:06;3.65;;;2.85;;
40707;SDS011;26392;42.696;23.350;2022-09-21T06:57:32;5.65;;;3.22;;
40707;SDS011;26392;42.696;23.350;2022-09-21T06:59:57;8.18;;;3.10;;
40707;SDS011;26392;42.696;23.350;2022-09-21T07:02:23;4.82;;;2.97;;
40707;SDS011;26392;42.696;23.350;2022-09-21T07:04:48;7.72;;;3.60;;
40707;SDS011;26392;42.696;23.350;2022-09-21T07:07:14;8.55;;;4.80;;
40707;SDS011;26392;42.696;23.350;2022-09-21T07:09:39;8.73;;;4.53;;
40707;SDS011;26392;42.696;23.350;2022-09-21T07:12:05;9.02;;;4.38;;
40707;SDS011;26392;42.696;23.350;2022-09-21T07:14:32;10.63;;;3.55;;
40707;SDS011;26392;42.696;23.350;2022-09-21T07:16:57;6.28;;;3.22;;
40707;SDS011;26392;42.696;23.350;2022-09-21T07:19:23;7.70;;;2.95;;
40707;SDS011;26392;42.696;23.350;2022-09-21T07:21:51;7.47;;;3.55;;
40707;SDS011;26392;42.696;23.350;2022-09-21T07:24:17;3.95;;;2.67;;
40707;SDS011;26392;42.696;23.350;2022-09-21T07:26:43;4.07;;;2.95;;
40707;SDS011;26392;42.696;23.350;2022-09-21T07:29:08;3.72;;;2.35;;
40707;SDS011;26392;42.696;23.350;2022-09-21T07:31:34;6.40;;;2.65;;
40707;SDS011;26392;42.696;23.350;2022-09-21T07:33:59;4.15;;;2.65;;
40707;SDS011;26392;42.696;23.350;2022-09-21T07:36:25;3.22;;;2.30;;
40707;SDS011;26392;42.696;23.350;2022-09-21T07:38:51;7.97;;;2.60;;
40707;SDS011;26392;42.696;23.350;2022-09-21T07:41:18;4.50;;;2.72;;
40707;SDS011;26392;42.696;23.350;2022-09-21T07:43:44;6.53;;;2.40;;
40707;SDS011;26392;42.696;23.350;2022-09-21T07:46:10;9.75;;;3.05;;
40707;SDS011;26392;42.696;23.350;2022-09-21T07:48:37;4.07;;;2.08;;
40707;SDS011;26392;42.696;23.350;2022-09-21T07:51:05;2.95;;;2.20;;
40707;SDS011;26392;42.696;23.350;2022-09-21T07:53:35;6.93;;;2.38;;
40707;SDS011;26392;42.696;23.350;2022-09-21T07:56:12;3.20;;;2.10;;
40707;SDS011;26392;42.696;23.350;2022-09-21T07:58:41;4.50;;;2.25;;
40707;SDS011;26392;42.696;23.350;2022-09-21T08:01:26;4.50;;;2.63;;
40707;SDS011;26392;42.696;23.350;2022-09-21T08:03:54;3.78;;;1.85;;
40707;SDS011;26392;42.696;23.350;2022-09-21T08:06:21;4.88;;;2.80;;
40707;SDS011;26392;42.696;23.350;2022-09-21T08:08:48;7.88;;;2.58;;
40707;SDS011;26392;42.696;23.350;2022-09-21T08:11:17;5.88;;;2.75;;
40707;SDS011;26392;42.696;23.350;2022-09-21T08:13:45;4.43;;;2.30;;
40707;SDS011;26392;42.696;23.350;2022-09-21T08:16:11;2.88;;;2.08;;
40707;SDS011;26392;42.696;23.350;2022-09-21T08:18:37;3.58;;;2.22;;
40707;SDS011;26392;42.696;23.350;2022-09-21T08:21:03;4.25;;;2.28;;
40707;SDS011;26392;42.696;23.350;2022-09-21T08:23:29;3.35;;;2.10;;
40707;SDS011;26392;42.696;23.350;2022-09-21T08:28:27;3.65;;;2.28;;
40707;SDS011;26392;42.696;23.350;2022-09-21T08:30:57;21.70;;;2.75;;
40707;SDS011;26392;42.696;23.350;2022-09-21T08:33:27;3.45;;;1.75;;
40707;SDS011;26392;42.696;23.350;2022-09-21T08:35:54;5.57;;;1.92;;
40707;SDS011;26392;42.696;23.350;2022-09-21T08:38:21;2.67;;;1.70;;
40707;SDS011;26392;42.696;23.350;2022-09-21T08:40:47;3.03;;;1.63;;
40707;SDS011;26392;42.696;23.350;2022-09-21T08:43:16;1.80;;;1.50;;
40707;SDS011;26392;42.696;23.350;2022-09-21T08:45:51;2.03;;;1.75;;
40707;SDS011;26392;42.696;23.350;2022-09-21T08:48:19;3.60;;;1.80;;
40707;SDS011;26392;42.696;23.350;2022-09-21T08:50:51;3.33;;;1.80;;
40707;SDS011;26392;42.696;23.350;2022-09-21T08:53:20;1.48;;;1.17;;
40707;SDS011;26392;42.696;23.350;2022-09-21T08:55:50;2.95;;;1.77;;
40707;SDS011;26392;42.696;23.350;2022-09-21T08:58:22;2.67;;;1.63;;
40707;SDS011;26392;42.696;23.350;2022-09-21T09:11:39;5.45;;;1.63;;
40707;SDS011;26392;42.696;23.350;2022-09-21T09:19:42;1.77;;;1.23;;
40707;SDS011;26392;42.696;23.350;2022-09-21T09:22:23;4.20;;;1.75;;
40707;SDS011;26392;42.696;23.350;2022-09-21T09:25:01;1.17;;;1.02;;
40707;SDS011;26392;42.696;23.350;2022-09-21T09:27:34;1.52;;;1.05;;
40707;SDS011;26392;42.696;23.350;2022-09-21T09:32:41;1.60;;;1.30;;
40707;SDS011;26392;42.696;23.350;2022-09-21T09:35:21;1.42;;;1.10;;
40707;SDS011;26392;42.696;23.350;2022-09-21T09:37:53;5.10;;;1.50;;
40707;SDS011;26392;42.696;23.350;2022-09-21T09:40:35;3.33;;;1.65;;
40707;SDS011;26392;42.696;23.350;2022-09-21T09:43:58;3.85;;;1.75;;
40707;SDS011;26392;42.696;23.350;2022-09-21T09:52:00;1.73;;;1.35;;
40707;SDS011;26392;42.696;23.350;2022-09-21T09:54:27;6.28;;;1.45;;
40707;SDS011;26392;42.696;23.350;2022-09-21T09:56:57;2.70;;;1.60;;
40707;SDS011;26392;42.696;23.350;2022-09-21T10:02:00;1.77;;;1.48;;
40707;SDS011;26392;42.696;23.350;2022-09-21T10:04:56;2.60;;;1.67;;
40707;SDS011;26392;42.696;23.350;2022-09-21T10:07:42;2.95;;;1.60;;
40707;SDS011;26392;42.696;23.350;2022-09-21T10:13:03;4.25;;;1.50;;
40707;SDS011;26392;42.696;23.350;2022-09-21T10:15:29;2.65;;;1.30;;
40707;SDS011;26392;42.696;23.350;2022-09-21T10:18:17;1.98;;;1.42;;
40707;SDS011;26392;42.696;23.350;2022-09-21T10:20:53;2.25;;;1.75;;
40707;SDS011;26392;42.696;23.350;2022-09-21T10:23:22;1.48;;;1.20;;
40707;SDS011;26392;42.696;23.350;2022-09-21T10:25:53;2.80;;;1.35;;
40707;SDS011;26392;42.696;23.350;2022-09-21T10:28:20;3.80;;;1.48;;
40707;SDS011;26392;42.696;23.350;2022-09-21T10:30:47;1.80;;;1.50;;
40707;SDS011;26392;42.696;23.350;2022-09-21T10:33:20;5.40;;;1.00;;
40707;SDS011;26392;42.696;23.350;2022-09-21T10:35:50;0.95;;;0.82;;
40707;SDS011;26392;42.696;23.350;2022-09-21T10:38:18;2.22;;;1.83;;
40707;SDS011;26392;42.696;23.350;2022-09-21T10:40:44;1.67;;;1.00;;
40707;SDS011;26392;42.696;23.350;2022-09-21T10:45:53;3.13;;;1.45;;
40707;SDS011;26392;42.696;23.350;2022-09-21T10:48:21;3.28;;;1.00;;
40707;SDS011;26392;42.696;23.350;2022-09-21T10:50:49;2.33;;;1.17;;
40707;SDS011;26392;42.696;23.350;2022-09-21T10:56:20;1.33;;;0.90;;
40707;SDS011;26392;42.696;23.350;2022-09-21T11:01:47;1.92;;;0.90;;
40707;SDS011;26392;42.696;23.350;2022-09-21T11:04:17;1.13;;;0.90;;
40707;SDS011;26392;42.696;23.350;2022-09-21T11:07:03;0.98;;;0.85;;
40707;SDS011;26392;42.696;23.350;2022-09-21T11:09:53;0.98;;;0.95;;
40707;SDS011;26392;42.696;23.350;2022-09-21T11:17:50;1.83;;;0.98;;
40707;SDS011;26392;42.696;23.350;2022-09-21T11:22:50;1.15;;;0.70;;
40707;SDS011;26392;42.696;23.350;2022-09-21T11:28:05;1.00;;;0.90;;
40707;SDS011;26392;42.696;23.350;2022-09-21T11:31:28;1.85;;;1.05;;
40707;SDS011;26392;42.696;23.350;2022-09-21T11:47:13;4.45;;;1.00;;
40707;SDS011;26392;42.696;23.350;2022-09-21T11:52:52;5.57;;;0.98;;
40707;SDS011;26392;42.696;23.350;2022-09-21T12:00:43;1.33;;;0.80;;
40707;SDS011;26392;42.696;23.350;2022-09-21T12:06:05;4.97;;;1.10;;
40707;SDS011;26392;42.696;23.350;2022-09-21T12:12:12;0.80;;;0.75;;
40707;SDS011;26392;42.696;23.350;2022-09-21T12:26:02;4.80;;;2.00;;
40707;SDS011;26392;42.696;23.350;2022-09-21T12:28:31;1.65;;;1.02;;
40707;SDS011;26392;42.696;23.350;2022-09-21T12:31:22;0.70;;;0.70;;
40707;SDS011;26392;42.696;23.350;2022-09-21T12:33:54;1.98;;;0.82;;
40707;SDS011;26392;42.696;23.350;2022-09-21T12:36:33;0.52;;;0.50;;
40707;SDS011;26392;42.696;23.350;2022-09-21T12:42:02;1.17;;;0.98;;
40707;SDS011;26392;42.696;23.350;2022-09-21T12:47:19;3.70;;;0.90;;
40707;SDS011;26392;42.696;23.350;2022-09-21T12:49:52;1.20;;;1.08;;
40707;SDS011;26392;42.696;23.350;2022-09-21T12:52:24;0.80;;;0.68;;
40707;SDS011;26392;42.696;23.350;2022-09-21T12:55:06;1.70;;;0.75;;
40707;SDS011;26392;42.696;23.350;2022-09-21T13:00:22;0.68;;;0.57;;
40707;SDS011;26392;42.696;23.350;2022-09-21T13:02:59;2.88;;;0.77;;
40707;SDS011;26392;42.696;23.350;2022-09-21T13:08:42;0.90;;;0.80;;
40707;SDS011;26392;42.696;23.350;2022-09-21T13:11:10;0.95;;;0.80;;
40707;SDS011;26392;42.696;23.350;2022-09-21T13:13:37;1.00;;;0.80;;
40707;SDS011;26392;42.696;23.350;2022-09-21T13:16:20;1.95;;;1.10;;
40707;SDS011;26392;42.696;23.350;2022-09-21T13:18:54;0.85;;;0.70;;
40707;SDS011;26392;42.696;23.350;2022-09-21T13:21:40;0.70;;;0.63;;
40707;SDS011;26392;42.696;23.350;2022-09-21T13:24:22;0.80;;;0.60;;
40707;SDS011;26392;42.696;23.350;2022-09-21T13:26:52;1.23;;;0.50;;
40707;SDS011;26392;42.696;23.350;2022-09-21T13:34:23;0.80;;;0.50;;
40707;SDS011;26392;42.696;23.350;2022-09-21T13:39:35;0.55;;;0.50;;
40707;SDS011;26392;42.696;23.350;2022-09-21T13:44:52;0.80;;;0.50;;
40707;SDS011;26392;42.696;23.350;2022-09-21T13:47:26;0.60;;;0.60;;
40707;SDS011;26392;42.696;23.350;2022-09-21T13:49:56;0.90;;;0.80;;
40707;SDS011;26392;42.696;23.350;2022-09-21T13:52:26;2.03;;;0.90;;
40707;SDS011;26392;42.696;23.350;2022-09-21T13:55:02;1.63;;;1.10;;
40707;SDS011;26392;42.696;23.350;2022-09-21T14:02:59;1.73;;;1.17;;
40707;SDS011;26392;42.696;23.350;2022-09-21T14:05:32;1.52;;;1.23;;
40707;SDS011;26392;42.696;23.350;2022-09-21T14:08:05;1.20;;;1.10;;
40707;SDS011;26392;42.696;23.350;2022-09-21T14:13:23;1.92;;;1.40;;
40707;SDS011;26392;42.696;23.350;2022-09-21T14:18:58;2.35;;;1.60;;
40707;SDS011;26392;42.696;23.350;2022-09-21T14:21:24;2.45;;;1.45;;
40707;SDS011;26392;42.696;23.350;2022-09-21T14:29:07;3.05;;;1.30;;
40707;SDS011;26392;42.696;23.350;2022-09-21T14:31:41;2.38;;;1.83;;
40707;SDS011;26392;42.696;23.350;2022-09-21T14:34:10;3.78;;;1.80;;
40707;SDS011;26392;42.696;23.350;2022-09-21T14:36:42;2.00;;;1.43;;
40707;SDS011;26392;42.696;23.350;2022-09-21T14:39:32;1.48;;;1.33;;
40707;SDS011;26392;42.696;23.350;2022-09-21T14:42:15;1.48;;;1.25;;
40707;SDS011;26392;42.696;23.350;2022-09-21T14:44:44;1.85;;;1.10;;
40707;SDS011;26392;42.696;23.350;2022-09-21T14:50:16;1.58;;;1.38;;
40707;SDS011;26392;42.696;23.350;2022-09-21T15:10:06;3.45;;;1.60;;
40707;SDS011;26392;42.696;23.350;2022-09-21T15:12:58;1.98;;;1.48;;
40707;SDS011;26392;42.696;23.350;2022-09-21T15:15:43;1.60;;;1.20;;
40707;SDS011;26392;42.696;23.350;2022-09-21T15:18:38;3.13;;;1.90;;
40707;SDS011;26392;42.696;23.350;2022-09-21T15:21:17;1.75;;;1.50;;
40707;SDS011;26392;42.696;23.350;2022-09-21T15:23:48;2.10;;;1.58;;
40707;SDS011;26392;42.696;23.350;2022-09-21T15:26:15;1.85;;;1.55;;
40707;SDS011;26392;42.696;23.350;2022-09-21T15:28:46;0.95;;;0.88;;
40707;SDS011;26392;42.696;23.350;2022-09-21T15:31:14;1.70;;;1.40;;
40707;SDS011;26392;42.696;23.350;2022-09-21T15:33:41;1.15;;;1.00;;
40707;SDS011;26392;42.696;23.350;2022-09-21T15:36:12;1.65;;;1.20;;
40707;SDS011;26392;42.696;23.350;2022-09-21T15:38:46;2.22;;;1.48;;
40707;SDS011;26392;42.696;23.350;2022-09-21T15:41:17;3.78;;;1.17;;
40707;SDS011;26392;42.696;23.350;2022-09-21T15:44:16;3.65;;;1.42;;
40707;SDS011;26392;42.696;23.350;2022-09-21T15:46:45;1.02;;;0.98;;
40707;SDS011;26392;42.696;23.350;2022-09-21T15:49:14;1.55;;;1.10;;
40707;SDS011;26392;42.696;23.350;2022-09-21T15:51:45;1.13;;;0.80;;
40707;SDS011;26392;42.696;23.350;2022-09-21T15:57:05;1.60;;;1.30;;
40707;SDS011;26392;42.696;23.350;2022-09-21T15:59:49;2.35;;;1.48;;
40707;SDS011;26392;42.696;23.350;2022-09-21T16:02:17;5.47;;;1.67;;
40707;SDS011;26392;42.696;23.350;2022-09-21T16:04:47;3.60;;;1.52;;
40707;SDS011;26392;42.696;23.350;2022-09-21T16:09:56;2.28;;;1.55;;
40707;SDS011;26392;42.696;23.350;2022-09-21T16:14:50;3.58;;;1.83;;
40707;SDS011;26392;42.696;23.350;2022-09-21T16:22:26;2.92;;;2.10;;
40707;SDS011;26392;42.696;23.350;2022-09-21T16:24:56;4.53;;;2.17;;
40707;SDS011;26392;42.696;23.350;2022-09-21T16:27:23;3.47;;;2.10;;
40707;SDS011;26392;42.696;23.350;2022-09-21T16:29:51;5.85;;;2.63;;
40707;SDS011;26392;42.696;23.350;2022-09-21T16:34:47;3.67;;;1.92;;
40707;SDS011;26392;42.696;23.350;2022-09-21T16:39:49;4.83;;;1.73;;
40707;SDS011;26392;42.696;23.350;2022-09-21T16:42:18;3.38;;;1.65;;
40707;SDS011;26392;42.696;23.350;2022-09-21T16:44:45;3.35;;;1.90;;
40707;SDS011;26392;42.696;23.350;2022-09-21T16:47:15;7.95;;;2.30;;
40707;SDS011;26392;42.696;23.350;2022-09-21T16:49:46;4.75;;;2.25;;
40707;SDS011;26392;42.696;23.350;2022-09-21T16:52:12;4.82;;;2.67;;
40707;SDS011;26392;42.696;23.350;2022-09-21T16:54:40;8.15;;;2.88;;
40707;SDS011;26392;42.696;23.350;2022-09-21T16:57:05;5.85;;;2.30;;
40707;SDS011;26392;42.696;23.350;2022-09-21T16:59:31;5.47;;;2.83;;
40707;SDS011;26392;42.696;23.350;2022-09-21T17:01:59;5.85;;;3.00;;
40707;SDS011;26392;42.696;23.350;2022-09-21T17:04:28;5.95;;;3.40;;
40707;SDS011;26392;42.696;23.350;2022-09-21T17:06:56;12.38;;;3.40;;
40707;SDS011;26392;42.696;23.350;2022-09-21T17:11:47;6.68;;;2.78;;
40707;SDS011;26392;42.696;23.350;2022-09-21T17:14:15;8.25;;;3.15;;
40707;SDS011;26392;42.696;23.350;2022-09-21T17:16:44;8.27;;;3.42;;
40707;SDS011;26392;42.696;23.350;2022-09-21T17:19:11;5.35;;;3.53;;
40707;SDS011;26392;42.696;23.350;2022-09-21T17:21:37;10.63;;;3.08;;
40707;SDS011;26392;42.696;23.350;2022-09-21T17:24:02;5.80;;;2.33;;
40707;SDS011;26392;42.696;23.350;2022-09-21T17:26:28;5.90;;;3.67;;
40707;SDS011;26392;42.696;23.350;2022-09-21T17:28:54;5.25;;;3.60;;
40707;SDS011;26392;42.696;23.350;2022-09-21T17:31:19;9.23;;;4.13;;
40707;SDS011;26392;42.696;23.350;2022-09-21T17:33:47;5.80;;;3.60;;
40707;SDS011;26392;42.696;23.350;2022-09-21T17:36:15;6.97;;;4.05;;
40707;SDS011;26392;42.696;23.350;2022-09-21T17:38:42;7.57;;;4.07;;
40707;SDS011;26392;42.696;23.350;2022-09-21T17:41:24;8.35;;;4.07;;
40707;SDS011;26392;42.696;23.350;2022-09-21T17:49:53;6.95;;;3.88;;
40707;SDS011;26392;42.696;23.350;2022-09-21T17:52:23;7.68;;;4.20;;
40707;SDS011;26392;42.696;23.350;2022-09-21T17:55:08;7.70;;;4.55;;
40707;SDS011;26392;42.696;23.350;2022-09-21T17:57:46;6.75;;;3.88;;
40707;SDS011;26392;42.696;23.350;2022-09-21T18:00:15;7.03;;;4.45;;
40707;SDS011;26392;42.696;23.350;2022-09-21T18:02:44;8.38;;;5.07;;
40707;SDS011;26392;42.696;23.350;2022-09-21T18:05:20;10.05;;;5.70;;
40707;SDS011;26392;42.696;23.350;2022-09-21T18:07:49;8.88;;;5.43;;
40707;SDS011;26392;42.696;23.350;2022-09-21T18:10:15;8.65;;;5.18;;
40707;SDS011;26392;42.696;23.350;2022-09-21T18:20:40;9.70;;;5.50;;
40707;SDS011;26392;42.696;23.350;2022-09-21T18:26:24;8.90;;;4.70;;
40707;SDS011;26392;42.696;23.350;2022-09-21T18:28:50;10.63;;;5.03;;
40707;SDS011;26392;42.696;23.350;2022-09-21T18:34:21;8.63;;;4.63;;
40707;SDS011;26392;42.696;23.350;2022-09-21T18:42:23;6.68;;;4.53;;
40707;SDS011;26392;42.696;23.350;2022-09-21T18:44:57;7.22;;;4.35;;
40707;SDS011;26392;42.696;23.350;2022-09-21T18:50:05;6.97;;;4.65;;
40707;SDS011;26392;42.696;23.350;2022-09-21T18:55:27;9.25;;;5.05;;